Time;durP1;ratioP1;P1;durP2;ratioP2;P2;SDS_P1;SDS_P2;PMS_P1;PMS_P2;Temp;Humidity;BMP_temperature;BMP_pressure;BME280_temperature;BME280_humidity;BME280_pressure;Samples;Min_cycle;Max_cycle;Signal;HPM_P1;HPM_P2
2023/08/31 00:00:11;;;;;;;9.57;7.53;;;20.00;99.90;;;;;;5108500;28;20208;-75
2023/08/31 00:02:39;;;;;;;8.90;7.13;;;20.00;99.90;;;;;;5125600;27;20672;-75
2023/08/31 00:05:05;;;;;;;9.00;7.73;;;20.00;99.90;;;;;;5109498;28;20482;-75
2023/08/31 00:07:31;;;;;;;10.07;7.97;;;20.10;99.90;;;;;;5125676;27;20412;-75
2023/08/31 00:09:58;;;;;;;10.23;8.80;;;20.10;99.90;;;;;;5109179;28;20454;-82
2023/08/31 00:12:24;;;;;;;11.20;7.90;;;20.10;99.90;;;;;;5109770;28;20419;-75
2023/08/31 00:14:50;;;;;;;8.33;7.27;;;20.10;99.90;;;;;;5109222;28;20454;-82
2023/08/31 00:17:17;;;;;;;9.10;7.87;;;20.10;99.90;;;;;;5109534;28;20403;-82
2023/08/31 00:19:43;;;;;;;11.43;9.80;;;20.10;99.90;;;;;;5109156;28;20471;-75
2023/08/31 00:22:09;;;;;;;11.17;9.23;;;20.20;99.90;;;;;;5125033;27;20416;-75
2023/08/31 00:24:35;;;;;;;9.30;8.23;;;20.20;99.90;;;;;;5109312;28;20427;-75
2023/08/31 00:27:03;;;;;;;8.17;7.37;;;20.20;99.90;;;;;;5125201;27;20211;-82
2023/08/31 00:29:29;;;;;;;9.43;7.63;;;20.20;99.90;;;;;;5124756;27;20709;-83
2023/08/31 00:31:55;;;;;;;9.47;7.77;;;20.20;99.90;;;;;;5125180;27;20503;-83
2023/08/31 00:34:21;;;;;;;17.37;8.23;;;20.20;99.90;;;;;;5124530;27;20427;-82
2023/08/31 00:36:48;;;;;;;11.17;8.43;;;20.20;99.90;;;;;;5109333;28;20411;-80
2023/08/31 00:39:14;;;;;;;10.53;8.67;;;20.10;99.90;;;;;;5108979;28;21122;-75
2023/08/31 00:41:40;;;;;;;9.80;8.50;;;20.20;99.90;;;;;;5109241;28;20712;-75
2023/08/31 00:44:05;;;;;;;10.23;8.03;;;20.20;99.90;;;;;;5108665;28;20543;-75
2023/08/31 00:46:32;;;;;;;9.33;8.43;;;20.20;99.90;;;;;;5109296;28;20227;-83
2023/08/31 00:48:58;;;;;;;10.17;8.20;;;20.20;99.90;;;;;;5124322;27;20404;-75
2023/08/31 00:51:25;;;;;;;10.17;8.83;;;20.20;99.90;;;;;;5124817;27;20793;-82
2023/08/31 00:53:54;;;;;;;9.63;8.33;;;20.20;99.90;;;;;;5124272;27;20431;-75
2023/08/31 00:56:20;;;;;;;9.87;7.90;;;20.20;99.90;;;;;;5108716;28;20427;-76
2023/08/31 00:58:46;;;;;;;9.40;8.40;;;20.20;99.90;;;;;;5108218;28;20893;-83
2023/08/31 01:01:47;;;;;;;9.63;8.40;;;20.20;99.90;;;;;;5123539;27;20470;-83
2023/08/31 01:04:48;;;;;;;10.17;8.93;;;20.20;99.90;;;;;;5108061;28;20467;-75
2023/08/31 01:07:32;;;;;;;11.80;9.13;;;20.20;99.90;;;;;;5108872;28;20406;-75
2023/08/31 01:10:10;;;;;;;10.83;8.97;;;20.20;99.90;;;;;;5123419;27;20456;-82
2023/08/31 01:13:02;;;;;;;9.97;8.40;;;20.20;99.90;;;;;;5124327;27;20408;-82
2023/08/31 01:15:31;;;;;;;9.80;8.73;;;20.20;99.90;;;;;;5124238;27;20748;-75
2023/08/31 01:18:00;;;;;;;8.73;7.80;;;20.20;99.90;;;;;;5108276;28;20769;-82
2023/08/31 01:20:38;;;;;;;9.43;8.13;;;20.20;99.90;;;;;;5123748;27;20578;-76
2023/08/31 01:23:13;;;;;;;9.27;8.30;;;20.20;99.90;;;;;;5123610;27;20989;-82
2023/08/31 01:25:42;;;;;;;9.13;8.23;;;20.20;99.90;;;;;;5124270;27;20800;-82
2023/08/31 01:28:08;;;;;;;8.97;7.97;;;20.20;99.90;;;;;;5107901;27;20411;-75
2023/08/31 01:30:34;;;;;;;10.60;8.50;;;20.20;99.90;;;;;;5123898;27;20436;-82
2023/08/31 01:33:00;;;;;;;11.60;9.17;;;20.20;99.90;;;;;;5107914;28;20792;-75
2023/08/31 01:35:27;;;;;;;9.37;8.40;;;20.30;99.90;;;;;;5107919;28;20184;-75
2023/08/31 01:38:00;;;;;;;10.90;9.13;;;20.30;99.90;;;;;;5107307;28;20469;-75
2023/08/31 01:40:33;;;;;;;10.07;8.50;;;20.30;99.90;;;;;;5107872;28;20804;-82
2023/08/31 01:43:03;;;;;;;10.53;8.97;;;20.30;99.90;;;;;;5123483;27;20775;-75
2023/08/31 01:45:31;;;;;;;9.80;8.80;;;20.30;99.90;;;;;;5108175;28;20463;-76
2023/08/31 01:47:57;;;;;;;11.03;9.47;;;20.40;99.90;;;;;;5107845;28;20415;-82
2023/08/31 01:50:23;;;;;;;9.17;8.17;;;20.40;99.90;;;;;;5107358;28;20763;-75
2023/08/31 01:52:49;;;;;;;10.97;9.27;;;20.30;99.90;;;;;;5107409;28;20412;-82
2023/08/31 01:55:15;;;;;;;11.63;9.57;;;20.30;99.90;;;;;;5107741;28;20431;-82
2023/08/31 01:57:41;;;;;;;9.87;8.80;;;20.30;99.90;;;;;;5107450;28;20207;-82
2023/08/31 02:00:11;;;;;;;11.27;8.50;;;20.30;99.90;;;;;;5107420;28;20491;-82
2023/08/31 02:02:36;;;;;;;8.60;7.70;;;20.30;99.90;;;;;;5122185;27;20192;-75
2023/08/31 02:05:04;;;;;;;10.77;9.00;;;20.30;99.90;;;;;;5106715;28;20787;-82
2023/08/31 02:07:30;;;;;;;11.10;9.10;;;20.20;99.90;;;;;;5107490;28;20679;-82
2023/08/31 02:09:56;;;;;;;11.57;9.23;;;20.20;99.90;;;;;;5122737;27;20463;-82
2023/08/31 02:12:22;;;;;;;14.67;9.50;;;20.20;99.90;;;;;;5123370;27;20472;-75
2023/08/31 02:14:48;;;;;;;10.27;9.23;;;20.20;99.90;;;;;;5122596;27;20462;-75
2023/08/31 02:17:13;;;;;;;9.30;8.30;;;20.20;99.90;;;;;;5107267;28;20939;-81
2023/08/31 02:19:39;;;;;;;12.00;10.23;;;20.10;99.90;;;;;;5105378;28;20486;-82
2023/08/31 02:22:05;;;;;;;10.93;9.07;;;20.10;99.90;;;;;;5106177;28;20210;-79
2023/08/31 02:24:30;;;;;;;10.03;9.00;;;20.10;99.90;;;;;;5122843;27;20239;-75
2023/08/31 02:26:56;;;;;;;10.90;9.13;;;20.10;99.90;;;;;;5107221;28;20660;-79
2023/08/31 02:29:22;;;;;;;12.37;10.43;;;20.00;99.90;;;;;;5106978;28;20805;-75
2023/08/31 02:31:48;;;;;;;10.07;8.40;;;20.00;99.90;;;;;;5107059;28;20659;-75
2023/08/31 02:34:13;;;;;;;10.53;9.30;;;20.00;99.90;;;;;;5106648;28;20194;-82
2023/08/31 02:36:39;;;;;;;9.60;8.60;;;20.00;99.90;;;;;;5122396;27;20174;-76
2023/08/31 02:39:06;;;;;;;11.27;9.23;;;19.90;99.90;;;;;;5121699;27;20189;-82
2023/08/31 02:41:31;;;;;;;10.93;8.90;;;19.90;99.90;;;;;;5122411;27;20219;-75
2023/08/31 02:43:57;;;;;;;11.90;8.93;;;19.90;99.90;;;;;;5106270;28;20857;-75
2023/08/31 02:46:23;;;;;;;10.17;8.07;;;19.90;99.90;;;;;;5106817;28;20198;-75
2023/08/31 02:48:49;;;;;;;11.23;8.77;;;19.90;99.90;;;;;;5122035;27;20458;-82
2023/08/31 02:51:15;;;;;;;11.93;9.23;;;19.90;99.90;;;;;;5106373;28;20314;-75
2023/08/31 02:53:40;;;;;;;11.47;9.30;;;19.90;99.90;;;;;;5106067;28;20418;-81
2023/08/31 02:56:07;;;;;;;10.43;9.33;;;19.80;99.90;;;;;;5122615;27;20204;-75
2023/08/31 02:58:33;;;;;;;10.60;8.80;;;19.90;99.90;;;;;;5106503;28;20562;-84
2023/08/31 03:01:12;;;;;;;11.33;9.57;;;19.90;99.90;;;;;;5121800;27;20475;-75
2023/08/31 03:03:39;;;;;;;10.70;8.70;;;19.90;99.90;;;;;;5121921;27;20412;-83
2023/08/31 03:06:08;;;;;;;12.83;9.20;;;20.10;99.90;;;;;;5120902;27;20513;-75
2023/08/31 03:08:37;;;;;;;10.57;9.47;;;20.20;99.90;;;;;;5105864;28;20403;-83
2023/08/31 03:11:04;;;;;;;11.67;9.77;;;20.30;99.90;;;;;;5106347;28;20438;-83
2023/08/31 03:13:31;;;;;;;11.27;9.03;;;20.30;99.90;;;;;;5121702;27;20769;-75
2023/08/31 03:15:57;;;;;;;10.53;9.37;;;20.40;99.90;;;;;;5121964;27;20788;-76
2023/08/31 03:18:23;;;;;;;9.03;8.00;;;20.50;99.90;;;;;;5105991;28;20411;-82
2023/08/31 03:20:49;;;;;;;10.37;9.27;;;20.50;99.90;;;;;;5106264;28;20487;-77
2023/08/31 03:23:15;;;;;;;11.00;9.10;;;20.50;99.90;;;;;;5106082;28;20404;-82
2023/08/31 03:25:41;;;;;;;11.10;9.80;;;20.60;99.90;;;;;;5106275;28;20218;-83
2023/08/31 03:28:07;;;;;;;9.57;8.30;;;20.60;99.90;;;;;;5121802;27;20441;-77
2023/08/31 03:30:32;;;;;;;9.23;8.30;;;20.70;99.90;;;;;;5121782;28;20741;-75
2023/08/31 03:32:58;;;;;;;11.13;9.40;;;20.70;99.90;;;;;;5105701;28;20171;-79
2023/08/31 03:35:26;;;;;;;10.83;8.60;;;20.70;99.90;;;;;;5121635;28;20206;-82
2023/08/31 03:37:53;;;;;;;11.40;9.90;;;20.70;99.90;;;;;;5105662;28;20800;-76
2023/08/31 03:40:19;;;;;;;12.37;8.70;;;20.70;99.90;;;;;;5104881;28;20467;-83
2023/08/31 03:42:45;;;;;;;11.47;8.83;;;20.70;99.90;;;;;;5105882;28;20407;-78
2023/08/31 03:45:11;;;;;;;10.50;9.37;;;20.70;99.90;;;;;;5121081;28;20438;-75
2023/08/31 03:47:37;;;;;;;9.77;8.77;;;20.70;99.90;;;;;;5106025;28;20222;-83
2023/08/31 03:50:03;;;;;;;9.97;8.57;;;20.70;99.90;;;;;;5105444;28;20482;-83
2023/08/31 03:52:29;;;;;;;10.20;7.83;;;20.70;99.90;;;;;;5121513;28;20176;-82
2023/08/31 03:54:55;;;;;;;11.33;9.63;;;20.70;99.90;;;;;;5121148;28;20455;-75
2023/08/31 03:57:21;;;;;;;9.90;8.37;;;20.70;99.90;;;;;;5105540;28;20192;-76
2023/08/31 03:59:46;;;;;;;11.07;8.67;;;20.70;99.90;;;;;;5105210;28;20218;-76
2023/08/31 04:02:12;;;;;;;10.73;8.57;;;20.70;99.90;;;;;;5121060;28;20276;-84
2023/08/31 04:04:37;;;;;;;10.50;9.40;;;20.80;99.90;;;;;;5119743;28;20196;-77
2023/08/31 04:07:03;;;;;;;10.27;9.13;;;20.80;99.90;;;;;;5104215;28;20241;-83
2023/08/31 04:09:30;;;;;;;11.77;9.30;;;20.80;99.90;;;;;;5102891;28;20791;-84
2023/08/31 04:11:55;;;;;;;10.80;8.40;;;20.80;99.90;;;;;;5105315;28;20400;-77
2023/08/31 04:14:21;;;;;;;11.17;10.00;;;20.90;99.90;;;;;;5103951;28;20584;-77
2023/08/31 04:16:49;;;;;;;12.00;9.07;;;20.90;99.90;;;;;;5105286;28;20183;-83
2023/08/31 04:19:15;;;;;;;10.67;9.03;;;20.90;99.90;;;;;;5103789;28;20224;-84
2023/08/31 04:21:41;;;;;;;10.97;9.10;;;20.90;99.90;;;;;;5103775;28;20460;-83
2023/08/31 04:24:06;;;;;;;10.90;9.10;;;20.90;99.90;;;;;;5103956;28;20440;-84
2023/08/31 04:26:32;;;;;;;11.50;10.00;;;20.90;99.90;;;;;;5105561;28;20199;-77
2023/08/31 04:28:58;;;;;;;11.37;9.53;;;20.90;99.90;;;;;;5103881;28;20176;-84
2023/08/31 04:31:23;;;;;;;12.20;9.80;;;20.90;99.90;;;;;;5104450;28;20329;-85
2023/08/31 04:33:53;;;;;;;10.40;8.97;;;20.90;99.90;;;;;;5103829;28;20635;-84
2023/08/31 04:36:19;;;;;;;8.93;8.00;;;20.90;99.90;;;;;;5103196;28;20214;-77
2023/08/31 04:38:45;;;;;;;10.80;9.07;;;20.90;99.90;;;;;;5103461;28;20432;-77
2023/08/31 04:41:11;;;;;;;9.73;8.70;;;20.90;99.90;;;;;;5102627;28;21221;-77
2023/08/31 04:43:36;;;;;;;9.80;8.80;;;20.80;99.90;;;;;;5104869;28;20341;-84
2023/08/31 04:46:03;;;;;;;10.40;8.57;;;20.80;99.90;;;;;;5107699;28;20683;-84
2023/08/31 04:48:29;;;;;;;11.67;9.17;;;20.70;99.90;;;;;;5107342;27;20206;-83
2023/08/31 04:50:58;;;;;;;11.27;8.67;;;20.70;99.90;;;;;;5108787;28;20467;-84
2023/08/31 04:53:24;;;;;;;10.50;9.20;;;20.60;99.90;;;;;;5108669;28;20258;-83
2023/08/31 04:55:50;;;;;;;9.67;7.90;;;20.60;99.90;;;;;;5106591;28;21044;-84
2023/08/31 04:58:15;;;;;;;11.50;9.40;;;20.60;99.90;;;;;;5095225;28;20176;-78
2023/08/31 05:00:41;;;;;;;10.70;8.33;;;20.60;99.90;;;;;;5097563;28;20265;-77
2023/08/31 05:03:06;;;;;;;11.07;9.10;;;20.50;99.90;;;;;;5096998;28;20297;-77
2023/08/31 05:05:32;;;;;;;11.43;8.20;;;20.50;99.90;;;;;;5098908;28;20222;-77
2023/08/31 05:07:59;;;;;;;9.90;8.90;;;20.50;99.90;;;;;;5096123;28;20176;-77
2023/08/31 05:10:25;;;;;;;9.00;7.90;;;20.50;99.90;;;;;;5095418;28;20294;-77
2023/08/31 05:12:51;;;;;;;10.07;8.40;;;20.50;99.90;;;;;;5097299;28;20671;-83
2023/08/31 05:15:17;;;;;;;9.80;8.30;;;20.50;99.90;;;;;;5094220;28;20253;-85
2023/08/31 05:17:42;;;;;;;10.30;8.87;;;20.50;99.90;;;;;;5097661;28;20431;-77
2023/08/31 05:20:09;;;;;;;10.10;9.10;;;20.60;99.90;;;;;;5096205;28;20232;-84
2023/08/31 05:22:36;;;;;;;9.30;8.40;;;20.60;99.90;;;;;;5096256;28;20199;-77
2023/08/31 05:25:01;;;;;;;8.73;7.73;;;20.70;99.90;;;;;;5097557;28;20442;-84
2023/08/31 05:27:27;;;;;;;8.60;7.50;;;20.70;99.90;;;;;;5098189;28;20483;-84
2023/08/31 05:29:53;;;;;;;9.23;8.20;;;20.70;99.90;;;;;;5093839;28;20200;-77
2023/08/31 05:32:18;;;;;;;11.00;9.40;;;20.70;99.90;;;;;;5095610;28;20783;-77
2023/08/31 05:34:44;;;;;;;9.07;8.07;;;20.60;99.90;;;;;;5104646;28;20199;-77
2023/08/31 05:37:10;;;;;;;10.57;8.77;;;20.60;99.90;;;;;;5101860;28;20582;-83
2023/08/31 05:39:35;;;;;;;10.77;8.80;;;20.50;99.90;;;;;;5103151;28;20206;-76
2023/08/31 05:42:01;;;;;;;9.07;7.70;;;20.50;99.90;;;;;;5102208;28;20208;-84
2023/08/31 05:44:27;;;;;;;8.60;7.70;;;20.50;99.90;;;;;;5086021;28;20462;-84
2023/08/31 05:46:52;;;;;;;9.43;7.60;;;20.50;99.90;;;;;;5100806;28;20777;-83
2023/08/31 05:49:18;;;;;;;10.50;8.07;;;20.50;99.90;;;;;;5102380;28;20175;-84
2023/08/31 05:51:44;;;;;;;9.27;7.80;;;20.60;99.90;;;;;;5100527;27;20223;-84
2023/08/31 05:54:11;;;;;;;9.83;7.93;;;20.60;99.90;;;;;;5111240;27;20179;-83
2023/08/31 05:56:39;;;;;;;10.80;8.20;;;20.60;99.90;;;;;;5098449;28;20297;-84
2023/08/31 05:59:05;;;;;;;9.70;8.37;;;20.60;99.90;;;;;;5100608;27;20505;-77
2023/08/31 06:01:31;;;;;;;9.90;7.50;;;20.70;99.90;;;;;;5080853;27;20476;-76
2023/08/31 06:03:57;;;;;;;9.70;7.80;;;20.70;99.90;;;;;;5088100;27;20428;-76
2023/08/31 06:06:23;;;;;;;8.57;7.33;;;20.80;99.90;;;;;;5086449;28;20439;-83
2023/08/31 06:08:49;;;;;;;8.67;7.27;;;20.80;99.90;;;;;;5086990;28;20291;-83
2023/08/31 06:11:15;;;;;;;8.50;6.40;;;20.90;99.90;;;;;;5081652;28;20215;-76
2023/08/31 06:13:41;;;;;;;10.63;8.07;;;20.90;99.90;;;;;;5087044;28;20412;-78
2023/08/31 06:16:07;;;;;;;7.77;6.97;;;20.90;99.90;;;;;;5092534;28;20243;-76
2023/08/31 06:18:32;;;;;;;7.20;6.50;;;20.90;99.90;;;;;;5089408;28;20455;-83
2023/08/31 06:20:58;;;;;;;9.07;7.60;;;20.90;99.90;;;;;;5086406;28;21051;-76
2023/08/31 06:23:24;;;;;;;7.73;6.07;;;20.90;99.90;;;;;;5087781;27;20291;-77
2023/08/31 06:25:49;;;;;;;8.33;7.00;;;21.00;99.90;;;;;;5086688;27;20238;-83
2023/08/31 06:28:16;;;;;;;8.63;6.80;;;21.00;99.90;;;;;;5082229;27;20186;-82
2023/08/31 06:30:46;;;;;;;7.20;6.50;;;21.10;99.90;;;;;;5088475;27;20380;-83
2023/08/31 06:33:14;;;;;;;8.27;6.30;;;21.10;99.90;;;;;;5087075;28;20497;-75
2023/08/31 06:35:40;;;;;;;9.27;7.23;;;21.10;99.90;;;;;;5092622;28;20431;-76
2023/08/31 06:38:06;;;;;;;6.90;6.20;;;21.10;99.90;;;;;;5087411;28;21105;-76
2023/08/31 06:40:33;;;;;;;6.90;6.20;;;21.10;99.90;;;;;;5103086;27;20780;-76
2023/08/31 06:42:58;;;;;;;7.20;6.00;;;21.20;99.90;;;;;;5093917;28;20420;-75
2023/08/31 06:45:24;;;;;;;6.57;5.87;;;21.20;99.90;;;;;;5097833;28;20481;-82
2023/08/31 06:47:50;;;;;;;6.80;6.10;;;21.20;99.90;;;;;;5092782;27;20190;-76
2023/08/31 06:50:16;;;;;;;7.33;6.60;;;21.20;99.90;;;;;;5099875;27;20383;-76
2023/08/31 06:52:42;;;;;;;7.70;6.00;;;21.30;99.90;;;;;;5097536;28;20180;-76
2023/08/31 06:55:08;;;;;;;6.20;5.60;;;21.30;99.90;;;;;;5093541;28;20460;-75
2023/08/31 06:57:33;;;;;;;6.77;6.07;;;21.30;99.90;;;;;;5098529;28;20657;-76
2023/08/31 06:59:59;;;;;;;8.17;6.00;;;21.30;99.90;;;;;;5097790;28;20451;-83
2023/08/31 07:02:28;;;;;;;8.07;6.47;;;21.30;99.90;;;;;;5122086;27;20179;-82
2023/08/31 07:04:54;;;;;;;5.90;5.30;;;21.30;99.90;;;;;;5098830;28;20915;-83
2023/08/31 07:07:19;;;;;;;7.43;5.70;;;21.40;99.90;;;;;;5102514;27;20762;-82
2023/08/31 07:09:47;;;;;;;5.70;4.93;;;21.40;99.90;;;;;;5091241;28;20207;-76
2023/08/31 07:12:12;;;;;;;8.27;6.37;;;21.50;99.90;;;;;;5099348;28;20183;-83
2023/08/31 07:14:38;;;;;;;7.10;5.77;;;21.50;99.90;;;;;;5101477;27;20980;-76
2023/08/31 07:17:04;;;;;;;6.80;6.10;;;21.50;99.90;;;;;;5100255;27;20470;-82
2023/08/31 07:19:30;;;;;;;6.90;5.60;;;21.50;99.90;;;;;;5096922;28;20227;-82
2023/08/31 07:21:56;;;;;;;6.70;6.10;;;21.50;99.90;;;;;;5091159;28;20671;-78
2023/08/31 07:24:22;;;;;;;5.53;5.00;;;21.40;99.90;;;;;;5096702;28;20214;-77
2023/08/31 07:26:48;;;;;;;6.50;5.90;;;21.50;99.90;;;;;;5092450;28;20184;-76
2023/08/31 07:29:14;;;;;;;5.93;5.30;;;21.50;99.90;;;;;;5095578;28;20544;-76
2023/08/31 07:31:40;;;;;;;6.43;5.63;;;21.50;99.90;;;;;;5096539;28;20488;-81
2023/08/31 07:34:06;;;;;;;10.87;8.40;;;21.50;99.90;;;;;;5085767;28;20398;-82
2023/08/31 07:36:31;;;;;;;5.97;5.37;;;21.50;99.90;;;;;;5088321;28;20468;-82
2023/08/31 07:38:57;;;;;;;6.53;5.80;;;21.50;99.90;;;;;;5087624;28;20440;-83
2023/08/31 07:41:23;;;;;;;6.70;5.60;;;21.50;99.90;;;;;;5093680;28;20884;-77
2023/08/31 07:43:49;;;;;;;6.97;5.73;;;21.50;99.90;;;;;;5097817;28;20227;-77
2023/08/31 07:46:15;;;;;;;6.57;5.90;;;21.60;99.90;;;;;;5096451;28;20203;-83
2023/08/31 07:48:42;;;;;;;7.07;5.47;;;21.60;99.90;;;;;;5094796;28;20596;-83
2023/08/31 07:51:08;;;;;;;5.70;5.20;;;21.70;99.90;;;;;;5094504;28;20798;-83
2023/08/31 07:53:34;;;;;;;5.73;5.13;;;21.70;99.90;;;;;;5092896;28;20968;-81
2023/08/31 07:55:59;;;;;;;6.23;5.63;;;21.80;99.90;;;;;;5098501;28;20301;-80
2023/08/31 07:58:28;;;;;;;5.93;5.20;;;21.80;99.90;;;;;;5100864;28;20223;-80
2023/08/31 08:00:55;;;;;;;4.90;4.50;;;21.90;99.90;;;;;;5097359;28;20294;-80
2023/08/31 08:03:25;;;;;;;4.90;4.40;;;22.00;99.90;;;;;;5094379;28;20594;-80
2023/08/31 08:05:50;;;;;;;5.33;4.83;;;22.00;99.90;;;;;;5115052;28;20490;-80
2023/08/31 08:08:16;;;;;;;4.50;4.10;;;22.10;99.90;;;;;;5094965;28;20464;-80
2023/08/31 08:10:43;;;;;;;4.23;3.83;;;22.20;99.90;;;;;;5103368;27;20294;-80
2023/08/31 08:13:09;;;;;;;4.67;4.20;;;22.40;99.90;;;;;;5090270;28;21169;-80
2023/08/31 08:15:37;;;;;;;4.40;4.00;;;22.40;99.90;;;;;;5089766;28;20508;-81
2023/08/31 08:18:03;;;;;;;3.80;3.43;;;22.50;99.90;;;;;;5093335;28;20447;-81
2023/08/31 08:20:29;;;;;;;3.77;3.47;;;22.60;99.90;;;;;;5116443;27;21047;-80
2023/08/31 08:22:55;;;;;;;4.73;4.00;;;22.70;99.90;;;;;;5100544;27;20424;-81
2023/08/31 08:25:22;;;;;;;4.80;4.40;;;22.80;99.90;;;;;;5104978;27;20195;-81
2023/08/31 08:27:48;;;;;;;4.57;4.17;;;22.90;99.90;;;;;;5102090;27;20428;-80
2023/08/31 08:30:15;;;;;;;4.23;3.83;;;23.00;99.90;;;;;;5095708;27;20445;-80
2023/08/31 08:32:41;;;;;;;3.93;3.57;;;23.10;99.90;;;;;;5098650;27;20422;-81
2023/08/31 08:35:08;;;;;;;4.30;3.90;;;23.10;99.90;;;;;;5098149;28;20519;-80
2023/08/31 08:37:33;;;;;;;3.83;3.43;;;23.10;99.90;;;;;;5097516;28;20432;-80
2023/08/31 08:40:00;;;;;;;4.40;4.00;;;23.20;99.90;;;;;;5094037;28;20451;-81
2023/08/31 08:42:28;;;;;;;4.17;3.77;;;23.20;99.90;;;;;;5105714;27;20206;-80
2023/08/31 08:44:56;;;;;;;4.77;4.37;;;23.30;99.90;;;;;;5094489;27;20452;-80
2023/08/31 08:47:22;;;;;;;4.63;3.50;;;23.40;99.90;;;;;;5100601;28;20533;-81
2023/08/31 08:49:48;;;;;;;4.37;3.97;;;23.60;99.90;;;;;;5100606;28;20549;-81
2023/08/31 08:52:15;;;;;;;3.90;3.60;;;23.80;99.90;;;;;;5111335;27;20186;-80
2023/08/31 08:54:41;;;;;;;4.30;3.97;;;23.90;99.90;;;;;;5101847;28;20442;-81
2023/08/31 08:57:07;;;;;;;3.27;3.03;;;24.00;99.90;;;;;;5102991;28;20444;-80
2023/08/31 08:59:33;;;;;;;4.53;4.13;;;24.00;99.90;;;;;;5126591;27;20200;-79
2023/08/31 09:01:59;;;;;;;10.30;7.60;;;24.10;99.90;;;;;;5104622;27;20225;-80
2023/08/31 09:04:25;;;;;;;4.83;4.10;;;24.10;99.90;;;;;;5100979;27;20442;-80
2023/08/31 09:06:51;;;;;;;5.10;4.60;;;24.20;99.90;;;;;;5097825;28;20999;-79
2023/08/31 09:09:17;;;;;;;4.80;4.30;;;24.20;99.90;;;;;;5098878;28;20178;-80
2023/08/31 09:11:43;;;;;;;3.83;3.43;;;24.10;99.90;;;;;;5100525;28;20468;-79
2023/08/31 09:14:16;;;;;;;3.30;3.03;;;24.20;99.90;;;;;;5106908;27;20686;-79
2023/08/31 09:16:48;;;;;;;4.40;3.53;;;24.20;99.90;;;;;;5099377;28;20439;-80
2023/08/31 09:19:24;;;;;;;4.33;3.93;;;24.30;99.90;;;;;;5091878;28;20455;-79
2023/08/31 09:21:51;;;;;;;3.50;3.20;;;24.40;99.90;;;;;;5099707;27;20855;-80
2023/08/31 09:24:18;;;;;;;3.03;2.73;;;24.40;99.90;;;;;;5099917;27;20447;-80
2023/08/31 09:26:56;;;;;;;4.37;3.40;;;24.50;99.90;;;;;;5096882;27;21185;-80
2023/08/31 09:29:22;;;;;;;4.27;3.87;;;24.60;99.90;;;;;;5098523;28;20428;-79
2023/08/31 09:31:48;;;;;;;3.30;3.00;;;24.50;99.90;;;;;;5109159;27;21189;-80
2023/08/31 09:34:15;;;;;;;3.43;3.13;;;24.50;99.90;;;;;;5102419;28;20439;-79
2023/08/31 09:36:42;;;;;;;3.20;2.90;;;24.60;99.90;;;;;;5100973;28;20435;-80
2023/08/31 09:39:09;;;;;;;3.90;3.60;;;24.60;99.90;;;;;;5100991;28;20911;-80
2023/08/31 09:41:35;;;;;;;4.20;3.17;;;24.60;99.90;;;;;;5102381;28;20528;-80
2023/08/31 09:44:18;;;;;;;3.83;3.53;;;24.60;99.90;;;;;;5114945;27;20448;-79
2023/08/31 09:46:44;;;;;;;3.30;3.00;;;24.70;99.90;;;;;;5119538;27;20431;-80
2023/08/31 09:49:15;;;;;;;3.40;3.10;;;24.70;99.90;;;;;;5103199;28;20936;-80
2023/08/31 09:51:48;;;;;;;4.57;4.20;;;24.70;99.90;;;;;;5098038;28;20451;-79
2023/08/31 09:54:18;;;;;;;3.67;3.33;;;24.80;99.90;;;;;;5099546;27;20627;-79
2023/08/31 09:56:46;;;;;;;3.60;3.30;;;24.80;99.90;;;;;;5100125;28;20423;-79
2023/08/31 09:59:13;;;;;;;2.67;2.47;;;24.80;99.90;;;;;;5101318;28;20408;-80
2023/08/31 10:01:40;;;;;;;3.27;2.97;;;24.70;99.90;;;;;;5095039;28;20460;-80
2023/08/31 10:04:08;;;;;;;3.53;3.23;;;24.70;99.90;;;;;;5092656;27;20437;-80
2023/08/31 10:06:35;;;;;;;3.20;2.90;;;24.70;99.90;;;;;;5094827;28;20998;-80
2023/08/31 10:09:02;;;;;;;30.47;20.10;;;24.80;99.90;;;;;;5095336;28;20451;-79
2023/08/31 10:11:29;;;;;;;5.03;4.53;;;24.90;99.90;;;;;;5090330;28;20470;-79
2023/08/31 10:13:55;;;;;;;4.23;3.83;;;25.00;99.90;;;;;;5092740;27;20438;-79
2023/08/31 10:16:22;;;;;;;3.53;3.23;;;24.90;99.90;;;;;;5094542;28;21211;-80
2023/08/31 10:18:48;;;;;;;3.50;3.20;;;24.90;99.90;;;;;;5098300;28;20206;-80
2023/08/31 10:21:18;;;;;;;2.87;2.67;;;24.90;99.90;;;;;;5100405;28;21102;-80
2023/08/31 10:23:45;;;;;;;3.50;3.20;;;24.90;99.90;;;;;;5099380;28;20423;-80
2023/08/31 10:26:11;;;;;;;2.53;2.33;;;24.90;99.90;;;;;;5095606;28;20462;-80
2023/08/31 10:28:41;;;;;;;2.80;2.60;;;24.90;99.90;;;;;;5095800;28;20420;-80
2023/08/31 10:31:17;;;;;;;2.60;2.40;;;24.80;99.90;;;;;;5088643;28;20731;-80
2023/08/31 10:33:47;;;;;;;2.90;2.70;;;24.80;99.90;;;;;;5093329;28;20443;-80
2023/08/31 10:36:19;;;;;;;2.50;2.17;;;24.90;99.90;;;;;;5093038;28;20905;-80
2023/08/31 10:39:08;;;;;;;3.60;3.30;;;24.90;99.90;;;;;;5094859;28;21260;-80
2023/08/31 10:41:36;;;;;;;3.53;3.23;;;25.00;99.90;;;;;;5097585;28;20503;-80
2023/08/31 10:44:16;;;;;;;3.57;3.27;;;25.00;99.90;;;;;;5098098;28;20454;-80
2023/08/31 10:46:44;;;;;;;2.90;2.70;;;25.10;99.90;;;;;;5090968;28;20424;-79
2023/08/31 10:49:09;;;;;;;2.70;2.50;;;25.10;99.90;;;;;;5098282;28;20510;-80
2023/08/31 10:51:38;;;;;;;2.90;2.70;;;25.10;99.90;;;;;;5090512;28;20520;-80
2023/08/31 10:54:26;;;;;;;3.30;3.10;;;25.10;99.90;;;;;;5098856;28;20184;-80
2023/08/31 10:56:52;;;;;;;2.70;2.50;;;25.20;99.90;;;;;;5101929;28;20416;-80
2023/08/31 10:59:19;;;;;;;3.60;3.30;;;25.20;99.90;;;;;;5099910;28;20435;-80
2023/08/31 11:01:56;;;;;;;2.50;2.30;;;25.20;99.90;;;;;;5097247;28;20987;-79
2023/08/31 11:04:27;;;;;;;3.10;2.90;;;25.20;99.90;;;;;;5100864;28;20960;-80
2023/08/31 11:07:14;;;;;;;2.50;2.30;;;25.20;99.90;;;;;;5097753;28;20993;-79
2023/08/31 11:09:41;;;;;;;3.30;3.00;;;25.20;99.90;;;;;;5095745;28;20463;-80
2023/08/31 11:12:08;;;;;;;3.27;2.93;;;25.30;99.90;;;;;;5096897;28;20424;-80
2023/08/31 11:14:33;;;;;;;3.10;2.87;;;25.40;99.90;;;;;;5096171;28;20447;-80
2023/08/31 11:17:00;;;;;;;2.90;2.70;;;25.40;99.90;;;;;;5113770;27;20436;-80
2023/08/31 11:19:27;;;;;;;2.80;2.60;;;25.50;99.90;;;;;;5108240;27;20266;-80
2023/08/31 11:21:54;;;;;;;3.23;3.03;;;25.50;99.90;;;;;;5112817;27;20473;-80
2023/08/31 11:24:21;;;;;;;3.57;3.27;;;25.50;99.90;;;;;;5093683;28;20530;-81
2023/08/31 11:26:51;;;;;;;3.70;3.10;;;25.50;99.90;;;;;;5089494;28;20420;-81
2023/08/31 11:29:17;;;;;;;2.90;2.70;;;25.40;99.90;;;;;;5088578;28;21172;-80
2023/08/31 11:31:43;;;;;;;3.17;2.87;;;25.50;99.90;;;;;;5085875;28;20440;-79
2023/08/31 11:34:16;;;;;;;3.73;3.10;;;25.60;99.90;;;;;;5091494;28;20451;-79
2023/08/31 11:36:43;;;;;;;2.90;2.70;;;25.60;99.90;;;;;;5088752;28;20183;-80
2023/08/31 11:39:10;;;;;;;2.90;2.70;;;25.70;99.90;;;;;;5095302;28;20428;-80
2023/08/31 11:41:41;;;;;;;2.77;2.57;;;25.70;99.90;;;;;;5098959;28;20486;-79
2023/08/31 11:44:12;;;;;;;2.90;2.10;;;25.70;99.90;;;;;;5095236;28;20485;-80
2023/08/31 11:46:41;;;;;;;2.00;1.90;;;25.70;99.90;;;;;;5077871;28;20500;-81
2023/08/31 11:49:08;;;;;;;2.50;2.30;;;25.80;99.90;;;;;;5096151;28;20431;-80
2023/08/31 11:51:35;;;;;;;2.87;2.67;;;25.80;99.90;;;;;;5096448;28;20448;-80
2023/08/31 11:54:02;;;;;;;3.03;2.77;;;25.70;99.90;;;;;;5096830;28;20913;-79
2023/08/31 11:56:48;;;;;;;3.13;2.83;;;25.70;99.90;;;;;;5096412;28;21067;-80
2023/08/31 11:59:21;;;;;;;2.70;2.50;;;25.60;99.90;;;;;;5111911;27;20439;-79
2023/08/31 12:01:48;;;;;;;2.27;2.17;;;25.60;99.90;;;;;;5116571;27;21066;-79
2023/08/31 12:04:15;;;;;;;5.10;4.40;;;25.50;99.90;;;;;;5095005;28;20428;-79
2023/08/31 12:06:41;;;;;;;2.90;2.70;;;25.50;99.90;;;;;;5103248;28;20432;-79
2023/08/31 12:09:08;;;;;;;2.57;2.37;;;25.40;99.90;;;;;;5098234;28;20431;-79
2023/08/31 12:11:34;;;;;;;2.40;2.10;;;25.60;99.90;;;;;;5101869;28;20482;-79
2023/08/31 12:14:18;;;;;;;8.53;2.60;;;25.60;99.90;;;;;;5106737;28;20788;-79
2023/08/31 12:16:44;;;;;;;2.80;2.60;;;25.80;99.90;;;;;;5106066;28;21026;-80
2023/08/31 12:19:10;;;;;;;3.27;2.77;;;25.90;99.90;;;;;;5102036;28;20558;-78
2023/08/31 12:21:36;;;;;;;3.70;2.10;;;26.00;99.90;;;;;;5108792;27;20901;-79
2023/08/31 12:24:03;;;;;;;2.77;2.57;;;26.00;99.90;;;;;;5098732;28;20180;-78
2023/08/31 12:26:29;;;;;;;2.67;2.47;;;26.10;99.90;;;;;;5099329;28;20529;-79
2023/08/31 12:28:55;;;;;;;2.53;2.33;;;26.10;99.90;;;;;;5100235;28;20487;-79
2023/08/31 12:31:22;;;;;;;2.67;2.47;;;26.10;99.90;;;;;;5099262;28;20532;-79
2023/08/31 12:33:48;;;;;;;2.70;2.50;;;26.10;99.90;;;;;;5093702;28;20180;-79
2023/08/31 12:36:14;;;;;;;3.23;3.03;;;26.20;99.90;;;;;;5106605;27;20980;-79
2023/08/31 12:38:40;;;;;;;2.77;2.57;;;26.20;99.90;;;;;;5100753;28;20423;-80
2023/08/31 12:41:06;;;;;;;2.70;2.50;;;26.10;99.90;;;;;;5100619;27;20616;-79
2023/08/31 12:43:31;;;;;;;2.50;2.30;;;26.00;99.90;;;;;;5099756;28;21050;-79